sensor_id;sensor_type;location;lat;lon;timestamp;pressure;altitude;pressure_sealevel;temperature;humidity
60725;BME280;59881;36.722;-4.462;2023-07-29T00:01:25;100668.19;;;22.51;61.40
60725;BME280;59881;36.722;-4.462;2023-07-29T00:03:51;100666.34;;;22.52;61.52
60725;BME280;59881;36.722;-4.462;2023-07-29T00:06:16;100659.41;;;22.43;61.14
60725;BME280;59881;36.722;-4.462;2023-07-29T00:08:42;100645.50;;;22.39;61.38
60725;BME280;59881;36.722;-4.462;2023-07-29T00:11:07;100661.16;;;22.50;61.18
60725;BME280;59881;36.722;-4.462;2023-07-29T00:13:33;100646.09;;;22.26;60.92
60725;BME280;59881;36.722;-4.462;2023-07-29T00:15:58;100655.53;;;22.60;60.68
60725;BME280;59881;36.722;-4.462;2023-07-29T00:18:24;100634.31;;;22.50;60.42
60725;BME280;59881;36.722;-4.462;2023-07-29T00:20:50;100629.97;;;22.49;60.19
60725;BME280;59881;36.722;-4.462;2023-07-29T00:23:17;100645.28;;;22.18;59.75
60725;BME280;59881;36.722;-4.462;2023-07-29T00:25:44;100648.88;;;22.56;59.43
60725;BME280;59881;36.722;-4.462;2023-07-29T00:28:10;100647.56;;;22.52;59.43
60725;BME280;59881;36.722;-4.462;2023-07-29T00:30:35;100434.34;;;20.86;58.94
60725;BME280;59881;36.722;-4.462;2023-07-29T00:33:01;100637.00;;;22.50;58.55
60725;BME280;59881;36.722;-4.462;2023-07-29T00:35:26;100603.25;;;22.33;58.13
60725;BME280;59881;36.722;-4.462;2023-07-29T00:37:52;100660.56;;;22.40;57.73
60725;BME280;59881;36.722;-4.462;2023-07-29T00:40:21;100600.75;;;22.31;57.50
60725;BME280;59881;36.722;-4.462;2023-07-29T00:42:48;100628.78;;;22.52;57.26
60725;BME280;59881;36.722;-4.462;2023-07-29T00:45:14;100630.81;;;22.50;57.01
60725;BME280;59881;36.722;-4.462;2023-07-29T00:47:41;100624.13;;;22.46;57.22
60725;BME280;59881;36.722;-4.462;2023-07-29T00:50:09;100623.47;;;22.44;57.42
60725;BME280;59881;36.722;-4.462;2023-07-29T00:52:36;100627.19;;;22.43;57.49
60725;BME280;59881;36.722;-4.462;2023-07-29T00:55:03;100614.53;;;22.28;57.76
60725;BME280;59881;36.722;-4.462;2023-07-29T00:57:29;100573.22;;;22.15;57.88
60725;BME280;59881;36.722;-4.462;2023-07-29T00:59:56;100583.81;;;22.31;57.91
60725;BME280;59881;36.722;-4.462;2023-07-29T01:02:22;100458.38;;;21.57;58.18
60725;BME280;59881;36.722;-4.462;2023-07-29T01:04:54;100605.44;;;22.52;58.66
60725;BME280;59881;36.722;-4.462;2023-07-29T01:10:07;100603.03;;;22.58;58.30
60725;BME280;59881;36.722;-4.462;2023-07-29T01:17:49;100325.25;;;20.88;57.75
60725;BME280;59881;36.722;-4.462;2023-07-29T01:20:19;100611.09;;;22.43;57.54
60725;BME280;59881;36.722;-4.462;2023-07-29T01:22:46;100593.84;;;22.37;57.67
60725;BME280;59881;36.722;-4.462;2023-07-29T01:25:13;100327.66;;;20.75;57.47
60725;BME280;59881;36.722;-4.462;2023-07-29T01:27:39;100591.72;;;22.33;57.77
60725;BME280;59881;36.722;-4.462;2023-07-29T01:30:05;100302.00;;;20.58;57.86
60725;BME280;59881;36.722;-4.462;2023-07-29T01:32:43;100564.09;;;22.24;57.82
60725;BME280;59881;36.722;-4.462;2023-07-29T01:35:18;100588.59;;;22.44;57.94
60725;BME280;59881;36.722;-4.462;2023-07-29T01:37:48;100584.69;;;22.46;58.26
60725;BME280;59881;36.722;-4.462;2023-07-29T01:40:15;100586.06;;;22.42;58.43
60725;BME280;59881;36.722;-4.462;2023-07-29T01:42:41;100451.78;;;21.37;58.83
60725;BME280;59881;36.722;-4.462;2023-07-29T01:45:06;100546.44;;;22.06;59.29
60725;BME280;59881;36.722;-4.462;2023-07-29T01:47:32;100585.19;;;22.27;59.45
60725;BME280;59881;36.722;-4.462;2023-07-29T01:49:58;100317.53;;;20.54;59.65
60725;BME280;59881;36.722;-4.462;2023-07-29T01:52:23;100590.41;;;22.20;59.77
60725;BME280;59881;36.722;-4.462;2023-07-29T01:54:49;100564.41;;;22.06;59.37
60725;BME280;59881;36.722;-4.462;2023-07-29T01:57:14;100585.44;;;22.17;58.86
60725;BME280;59881;36.722;-4.462;2023-07-29T01:59:39;100589.47;;;22.13;58.48
60725;BME280;59881;36.722;-4.462;2023-07-29T02:02:05;100265.47;;;20.11;58.13
60725;BME280;59881;36.722;-4.462;2023-07-29T02:04:31;100597.03;;;22.09;58.21
60725;BME280;59881;36.722;-4.462;2023-07-29T02:06:56;100596.59;;;22.06;58.02
60725;BME280;59881;36.722;-4.462;2023-07-29T02:09:22;100318.50;;;20.30;58.05
60725;BME280;59881;36.722;-4.462;2023-07-29T02:11:47;100330.88;;;20.31;58.17
60725;BME280;59881;36.722;-4.462;2023-07-29T02:14:13;100602.84;;;21.98;57.90
60725;BME280;59881;36.722;-4.462;2023-07-29T02:16:38;100606.72;;;21.96;58.10
60725;BME280;59881;36.722;-4.462;2023-07-29T02:19:04;100612.63;;;21.91;57.97
60725;BME280;59881;36.722;-4.462;2023-07-29T02:21:30;100614.63;;;21.89;58.19
60725;BME280;59881;36.722;-4.462;2023-07-29T02:23:55;100618.63;;;21.93;58.84
60725;BME280;59881;36.722;-4.462;2023-07-29T02:26:21;100620.13;;;21.96;59.34
60725;BME280;59881;36.722;-4.462;2023-07-29T02:28:47;100531.81;;;21.48;59.58
60725;BME280;59881;36.722;-4.462;2023-07-29T02:31:16;100614.75;;;21.96;59.29
60725;BME280;59881;36.722;-4.462;2023-07-29T02:33:43;100620.50;;;21.93;59.32
60725;BME280;59881;36.722;-4.462;2023-07-29T02:36:08;100615.47;;;21.89;59.46
60725;BME280;59881;36.722;-4.462;2023-07-29T02:38:34;100614.50;;;21.82;59.13
60725;BME280;59881;36.722;-4.462;2023-07-29T02:40:59;100566.31;;;21.43;59.12
60725;BME280;59881;36.722;-4.462;2023-07-29T02:43:25;100546.81;;;21.26;59.23
60725;BME280;59881;36.722;-4.462;2023-07-29T02:45:50;100616.28;;;21.67;59.45
60725;BME280;59881;36.722;-4.462;2023-07-29T02:48:16;100613.78;;;21.65;59.22
60725;BME280;59881;36.722;-4.462;2023-07-29T02:50:41;100618.13;;;21.66;59.67
60725;BME280;59881;36.722;-4.462;2023-07-29T02:53:07;100576.13;;;21.19;59.82
60725;BME280;59881;36.722;-4.462;2023-07-29T02:55:32;100581.88;;;21.47;59.67
60725;BME280;59881;36.722;-4.462;2023-07-29T02:57:58;100617.25;;;21.74;59.11
60725;BME280;59881;36.722;-4.462;2023-07-29T03:00:23;100610.72;;;21.77;58.96
60725;BME280;59881;36.722;-4.462;2023-07-29T03:02:50;100614.06;;;21.79;58.18
60725;BME280;59881;36.722;-4.462;2023-07-29T03:05:15;100651.84;;;21.61;58.15
60725;BME280;59881;36.722;-4.462;2023-07-29T03:07:41;100623.91;;;21.78;57.88
60725;BME280;59881;36.722;-4.462;2023-07-29T03:10:06;100350.19;;;20.10;57.72
60725;BME280;59881;36.722;-4.462;2023-07-29T03:12:32;100619.41;;;21.79;57.56
60725;BME280;59881;36.722;-4.462;2023-07-29T03:14:57;100624.94;;;21.77;57.48
60725;BME280;59881;36.722;-4.462;2023-07-29T03:17:25;100597.47;;;21.36;57.17
60725;BME280;59881;36.722;-4.462;2023-07-29T03:19:50;100325.81;;;19.97;56.77
60725;BME280;59881;36.722;-4.462;2023-07-29T03:22:16;100496.84;;;21.10;56.69
60725;BME280;59881;36.722;-4.462;2023-07-29T03:24:41;100628.38;;;21.94;56.67
60725;BME280;59881;36.722;-4.462;2023-07-29T03:27:07;100624.28;;;21.98;56.74
60725;BME280;59881;36.722;-4.462;2023-07-29T03:29:35;100378.00;;;20.40;56.67
60725;BME280;59881;36.722;-4.462;2023-07-29T03:32:01;100091.41;;;18.71;56.74
60725;BME280;59881;36.722;-4.462;2023-07-29T03:34:26;100626.63;;;22.01;56.79
60725;BME280;59881;36.722;-4.462;2023-07-29T03:36:52;100608.28;;;21.90;56.88
60725;BME280;59881;36.722;-4.462;2023-07-29T03:39:17;100579.91;;;21.73;57.00
60725;BME280;59881;36.722;-4.462;2023-07-29T03:41:43;100595.50;;;21.69;57.27
60725;BME280;59881;36.722;-4.462;2023-07-29T03:44:08;100617.50;;;21.87;57.10
60725;BME280;59881;36.722;-4.462;2023-07-29T03:46:34;100188.09;;;19.22;56.94
60725;BME280;59881;36.722;-4.462;2023-07-29T03:48:59;100551.56;;;21.47;57.10
60725;BME280;59881;36.722;-4.462;2023-07-29T03:51:25;100634.72;;;21.93;57.10
60725;BME280;59881;36.722;-4.462;2023-07-29T03:53:50;100631.38;;;21.91;57.16
60725;BME280;59881;36.722;-4.462;2023-07-29T03:56:16;100633.25;;;21.90;57.19
60725;BME280;59881;36.722;-4.462;2023-07-29T03:58:43;100636.91;;;21.89;57.10
60725;BME280;59881;36.722;-4.462;2023-07-29T04:01:09;100639.78;;;21.88;57.09
60725;BME280;59881;36.722;-4.462;2023-07-29T04:03:35;100574.56;;;21.41;57.31
60725;BME280;59881;36.722;-4.462;2023-07-29T04:06:00;100625.63;;;21.71;57.21
60725;BME280;59881;36.722;-4.462;2023-07-29T04:08:26;100349.41;;;20.01;57.24
60725;BME280;59881;36.722;-4.462;2023-07-29T04:10:51;100631.13;;;21.78;57.62
60725;BME280;59881;36.722;-4.462;2023-07-29T04:13:17;100586.41;;;21.47;57.65
60725;BME280;59881;36.722;-4.462;2023-07-29T04:15:43;100628.63;;;21.76;57.51
60725;BME280;59881;36.722;-4.462;2023-07-29T04:18:08;100605.91;;;21.64;57.63
60725;BME280;59881;36.722;-4.462;2023-07-29T04:20:34;100573.50;;;21.51;57.00
60725;BME280;59881;36.722;-4.462;2023-07-29T04:22:59;100608.38;;;21.74;56.92
60725;BME280;59881;36.722;-4.462;2023-07-29T04:25:25;100541.84;;;21.15;56.83
60725;BME280;59881;36.722;-4.462;2023-07-29T04:27:50;100275.59;;;19.68;56.60
60725;BME280;59881;36.722;-4.462;2023-07-29T04:30:16;100589.34;;;21.60;56.17
60725;BME280;59881;36.722;-4.462;2023-07-29T04:32:41;100617.03;;;21.84;55.95
60725;BME280;59881;36.722;-4.462;2023-07-29T04:35:08;100613.72;;;21.74;55.75
60725;BME280;59881;36.722;-4.462;2023-07-29T04:37:33;100385.72;;;20.27;55.86
60725;BME280;59881;36.722;-4.462;2023-07-29T04:39:59;100616.25;;;21.75;55.96
60725;BME280;59881;36.722;-4.462;2023-07-29T04:42:25;100637.03;;;21.73;55.80
60725;BME280;59881;36.722;-4.462;2023-07-29T04:44:50;100620.13;;;21.73;56.33
60725;BME280;59881;36.722;-4.462;2023-07-29T04:47:16;100628.16;;;21.73;56.19
60725;BME280;59881;36.722;-4.462;2023-07-29T04:49:42;100620.44;;;21.69;56.29
60725;BME280;59881;36.722;-4.462;2023-07-29T04:52:07;100624.66;;;21.72;56.44
60725;BME280;59881;36.722;-4.462;2023-07-29T04:54:33;100592.72;;;21.54;56.57
60725;BME280;59881;36.722;-4.462;2023-07-29T04:56:58;100668.53;;;21.71;56.49
60725;BME280;59881;36.722;-4.462;2023-07-29T04:59:24;100629.50;;;21.68;56.41
60725;BME280;59881;36.722;-4.462;2023-07-29T05:01:49;100419.69;;;20.10;56.53
60725;BME280;59881;36.722;-4.462;2023-07-29T05:04:15;100425.84;;;20.27;56.40
60725;BME280;59881;36.722;-4.462;2023-07-29T05:06:41;100617.88;;;21.53;56.58
60725;BME280;59881;36.722;-4.462;2023-07-29T05:09:17;100135.09;;;18.53;56.66
60725;BME280;59881;36.722;-4.462;2023-07-29T05:11:44;100604.88;;;21.42;56.71
60725;BME280;59881;36.722;-4.462;2023-07-29T05:14:13;100024.59;;;17.82;56.50
60725;BME280;59881;36.722;-4.462;2023-07-29T05:16:39;100573.63;;;21.18;56.76
60725;BME280;59881;36.722;-4.462;2023-07-29T05:19:04;100626.59;;;21.47;56.74
60725;BME280;59881;36.722;-4.462;2023-07-29T05:21:30;100593.19;;;21.26;56.90
60725;BME280;59881;36.722;-4.462;2023-07-29T05:23:55;100627.13;;;21.42;56.72
60725;BME280;59881;36.722;-4.462;2023-07-29T05:26:22;100627.78;;;21.44;56.52
60725;BME280;59881;36.722;-4.462;2023-07-29T05:28:47;100586.84;;;21.19;56.80
60725;BME280;59881;36.722;-4.462;2023-07-29T05:31:13;100608.69;;;21.39;56.80
60725;BME280;59881;36.722;-4.462;2023-07-29T05:33:38;100610.91;;;21.27;56.52
60725;BME280;59881;36.722;-4.462;2023-07-29T05:36:04;100559.25;;;21.19;56.41
60725;BME280;59881;36.722;-4.462;2023-07-29T05:38:30;100642.59;;;21.95;56.34
60725;BME280;59881;36.722;-4.462;2023-07-29T05:40:56;100279.44;;;19.81;55.57
60725;BME280;59881;36.722;-4.462;2023-07-29T05:43:23;100427.25;;;20.62;55.63
60725;BME280;59881;36.722;-4.462;2023-07-29T05:45:49;100698.56;;;22.52;55.17
60725;BME280;59881;36.722;-4.462;2023-07-29T05:48:14;100648.44;;;22.82;54.30
60725;BME280;59881;36.722;-4.462;2023-07-29T05:50:40;100645.44;;;23.15;53.77
60725;BME280;59881;36.722;-4.462;2023-07-29T05:53:05;100605.88;;;23.24;52.99
60725;BME280;59881;36.722;-4.462;2023-07-29T05:55:31;100645.00;;;23.78;51.89
60725;BME280;59881;36.722;-4.462;2023-07-29T05:57:56;100653.78;;;24.23;51.11
60725;BME280;59881;36.722;-4.462;2023-07-29T06:00:23;100659.47;;;24.56;50.32
60725;BME280;59881;36.722;-4.462;2023-07-29T06:02:48;100292.91;;;22.62;48.98
60725;BME280;59881;36.722;-4.462;2023-07-29T06:05:14;100584.91;;;24.91;48.50
60725;BME280;59881;36.722;-4.462;2023-07-29T06:07:39;100652.72;;;25.78;47.26
60725;BME280;59881;36.722;-4.462;2023-07-29T06:10:09;100648.69;;;26.22;45.69
60725;BME280;59881;36.722;-4.462;2023-07-29T06:12:37;100653.69;;;26.72;44.54
60725;BME280;59881;36.722;-4.462;2023-07-29T06:15:03;100639.47;;;27.23;43.43
60725;BME280;59881;36.722;-4.462;2023-07-29T06:17:29;100561.44;;;27.33;42.59
60725;BME280;59881;36.722;-4.462;2023-07-29T06:19:54;100534.59;;;27.70;41.49
60725;BME280;59881;36.722;-4.462;2023-07-29T06:22:19;100495.03;;;28.01;40.47
60725;BME280;59881;36.722;-4.462;2023-07-29T06:24:45;100639.44;;;29.32;39.78
60725;BME280;59881;36.722;-4.462;2023-07-29T06:27:10;100495.81;;;28.70;39.09
60725;BME280;59881;36.722;-4.462;2023-07-29T06:29:36;100449.00;;;28.93;38.60
60725;BME280;59881;36.722;-4.462;2023-07-29T06:32:01;100337.09;;;28.74;37.46
60725;BME280;59881;36.722;-4.462;2023-07-29T06:34:27;100279.69;;;28.77;37.04
60725;BME280;59881;36.722;-4.462;2023-07-29T06:36:52;100684.16;;;31.57;35.53
60725;BME280;59881;36.722;-4.462;2023-07-29T06:39:18;100322.47;;;30.00;34.85
60725;BME280;59881;36.722;-4.462;2023-07-29T06:41:43;100645.56;;;32.34;33.74
60725;BME280;59881;36.722;-4.462;2023-07-29T06:44:09;100596.91;;;32.09;33.22
60725;BME280;59881;36.722;-4.462;2023-07-29T06:46:34;100645.69;;;32.95;32.69
60725;BME280;59881;36.722;-4.462;2023-07-29T06:49:00;100629.94;;;33.19;32.04
60725;BME280;59881;36.722;-4.462;2023-07-29T06:51:25;100588.78;;;33.26;31.72
60725;BME280;59881;36.722;-4.462;2023-07-29T06:53:51;100625.94;;;33.76;31.37
60725;BME280;59881;36.722;-4.462;2023-07-29T06:56:16;100437.56;;;32.99;30.69
60725;BME280;59881;36.722;-4.462;2023-07-29T06:58:42;100651.22;;;34.90;30.02
60725;BME280;59881;36.722;-4.462;2023-07-29T07:01:07;100636.72;;;35.58;28.49
60725;BME280;59881;36.722;-4.462;2023-07-29T07:03:32;100594.06;;;35.93;27.59
60725;BME280;59881;36.722;-4.462;2023-07-29T07:05:58;100545.25;;;35.95;27.31
60725;BME280;59881;36.722;-4.462;2023-07-29T07:08:24;100387.72;;;35.46;26.88
60725;BME280;59881;36.722;-4.462;2023-07-29T07:10:49;100651.03;;;37.63;26.24
60725;BME280;59881;36.722;-4.462;2023-07-29T07:13:15;100561.97;;;37.69;25.35
60725;BME280;59881;36.722;-4.462;2023-07-29T07:15:40;100645.41;;;38.23;24.76
60725;BME280;59881;36.722;-4.462;2023-07-29T07:18:06;100655.53;;;38.28;24.66
60725;BME280;59881;36.722;-4.462;2023-07-29T07:20:31;100623.19;;;38.49;24.31
60725;BME280;59881;36.722;-4.462;2023-07-29T07:22:57;100646.94;;;38.93;23.66
60725;BME280;59881;36.722;-4.462;2023-07-29T07:25:22;100462.53;;;37.92;23.84
60725;BME280;59881;36.722;-4.462;2023-07-29T07:27:48;100491.41;;;38.18;23.09
60725;BME280;59881;36.722;-4.462;2023-07-29T07:30:14;100645.97;;;39.70;22.47
60725;BME280;59881;36.722;-4.462;2023-07-29T07:32:39;100649.00;;;40.06;22.11
60725;BME280;59881;36.722;-4.462;2023-07-29T07:35:05;100650.13;;;40.38;21.94
60725;BME280;59881;36.722;-4.462;2023-07-29T07:37:31;100447.66;;;39.60;21.65
60725;BME280;59881;36.722;-4.462;2023-07-29T07:39:56;100654.09;;;41.34;20.15
60725;BME280;59881;36.722;-4.462;2023-07-29T07:42:22;100587.34;;;41.41;20.25
60725;BME280;59881;36.722;-4.462;2023-07-29T07:44:47;100651.16;;;42.03;19.86
60725;BME280;59881;36.722;-4.462;2023-07-29T07:47:13;100635.38;;;42.35;19.55
60725;BME280;59881;36.722;-4.462;2023-07-29T07:49:38;100590.66;;;42.42;19.16
60725;BME280;59881;36.722;-4.462;2023-07-29T07:52:04;100632.75;;;43.01;18.96
60725;BME280;59881;36.722;-4.462;2023-07-29T07:54:29;100615.34;;;43.18;18.77
60725;BME280;59881;36.722;-4.462;2023-07-29T07:56:55;100603.16;;;43.28;18.27
60725;BME280;59881;36.722;-4.462;2023-07-29T07:59:20;100625.19;;;43.42;18.28
60725;BME280;59881;36.722;-4.462;2023-07-29T08:01:46;100442.31;;;42.41;18.53
60725;BME280;59881;36.722;-4.462;2023-07-29T08:04:12;100615.25;;;43.58;18.13
60725;BME280;59881;36.722;-4.462;2023-07-29T08:06:39;100297.66;;;42.09;17.86
60725;BME280;59881;36.722;-4.462;2023-07-29T08:09:04;100646.06;;;45.03;16.90
60725;BME280;59881;36.722;-4.462;2023-07-29T08:11:30;100619.81;;;45.21;16.37
60725;BME280;59881;36.722;-4.462;2023-07-29T08:13:56;100633.88;;;45.46;16.46
60725;BME280;59881;36.722;-4.462;2023-07-29T08:16:21;100635.84;;;45.67;16.24
60725;BME280;59881;36.722;-4.462;2023-07-29T08:18:47;100449.53;;;44.61;15.94
60725;BME280;59881;36.722;-4.462;2023-07-29T08:21:12;100641.06;;;46.35;15.60
60725;BME280;59881;36.722;-4.462;2023-07-29T08:23:38;100637.97;;;46.49;15.23
60725;BME280;59881;36.722;-4.462;2023-07-29T08:26:05;100621.94;;;46.58;15.50
60725;BME280;59881;36.722;-4.462;2023-07-29T08:28:36;100637.72;;;47.03;15.02
60725;BME280;59881;36.722;-4.462;2023-07-29T08:31:01;100641.28;;;47.40;14.49
60725;BME280;59881;36.722;-4.462;2023-07-29T08:33:28;100621.59;;;47.49;14.60
60725;BME280;59881;36.722;-4.462;2023-07-29T08:35:53;100644.81;;;47.94;14.49
60725;BME280;59881;36.722;-4.462;2023-07-29T08:38:20;100650.50;;;48.25;14.17
60725;BME280;59881;36.722;-4.462;2023-07-29T08:41:10;100654.69;;;48.19;14.15
60725;BME280;59881;36.722;-4.462;2023-07-29T08:43:38;100651.09;;;48.03;14.08
60725;BME280;59881;36.722;-4.462;2023-07-29T08:46:04;100650.66;;;47.60;14.38
60725;BME280;59881;36.722;-4.462;2023-07-29T08:48:42;100601.81;;;46.15;15.00
60725;BME280;59881;36.722;-4.462;2023-07-29T08:51:09;100652.50;;;44.95;16.45
60725;BME280;59881;36.722;-4.462;2023-07-29T08:53:36;100653.94;;;44.62;17.73
60725;BME280;59881;36.722;-4.462;2023-07-29T08:56:02;100668.41;;;44.77;17.60
60725;BME280;59881;36.722;-4.462;2023-07-29T08:58:27;100355.53;;;42.80;16.77
60725;BME280;59881;36.722;-4.462;2023-07-29T09:00:53;100692.75;;;43.06;18.95
60725;BME280;59881;36.722;-4.462;2023-07-29T09:03:20;100535.06;;;41.30;19.63
60725;BME280;59881;36.722;-4.462;2023-07-29T09:05:46;100681.47;;;42.62;19.56
60725;BME280;59881;36.722;-4.462;2023-07-29T09:08:11;100671.38;;;43.72;19.30
60725;BME280;59881;36.722;-4.462;2023-07-29T09:10:37;100666.28;;;44.44;18.52
60725;BME280;59881;36.722;-4.462;2023-07-29T09:13:04;100596.13;;;44.56;18.00
60725;BME280;59881;36.722;-4.462;2023-07-29T09:15:30;100713.03;;;45.49;17.99
60725;BME280;59881;36.722;-4.462;2023-07-29T09:17:57;100640.28;;;45.59;17.76
60725;BME280;59881;36.722;-4.462;2023-07-29T09:20:26;100678.13;;;44.62;18.21
60725;BME280;59881;36.722;-4.462;2023-07-29T09:22:58;100679.16;;;43.27;19.59
60725;BME280;59881;36.722;-4.462;2023-07-29T09:25:25;100439.16;;;41.93;19.95
60725;BME280;59881;36.722;-4.462;2023-07-29T09:27:51;100652.28;;;42.87;20.23
60725;BME280;59881;36.722;-4.462;2023-07-29T09:30:17;100632.41;;;42.00;20.60
60725;BME280;59881;36.722;-4.462;2023-07-29T09:32:43;100448.50;;;40.85;21.14
60725;BME280;59881;36.722;-4.462;2023-07-29T09:35:12;100737.38;;;42.19;21.38
60725;BME280;59881;36.722;-4.462;2023-07-29T09:37:39;100555.06;;;41.00;21.72
60725;BME280;59881;36.722;-4.462;2023-07-29T09:40:06;100706.69;;;41.93;21.94
60725;BME280;59881;36.722;-4.462;2023-07-29T09:42:32;100632.31;;;40.91;22.16
60725;BME280;59881;36.722;-4.462;2023-07-29T09:44:57;100557.47;;;40.18;22.83
60725;BME280;59881;36.722;-4.462;2023-07-29T09:47:24;100719.66;;;40.87;23.20
60725;BME280;59881;36.722;-4.462;2023-07-29T09:49:51;100710.56;;;40.72;22.92
60725;BME280;59881;36.722;-4.462;2023-07-29T09:52:18;100668.06;;;40.54;22.42
60725;BME280;59881;36.722;-4.462;2023-07-29T09:54:44;100487.69;;;39.38;21.68
60725;BME280;59881;36.722;-4.462;2023-07-29T09:57:17;100703.03;;;40.92;21.05
60725;BME280;59881;36.722;-4.462;2023-07-29T09:59:43;100715.81;;;41.15;20.42
60725;BME280;59881;36.722;-4.462;2023-07-29T10:02:13;100697.88;;;41.13;20.20
60725;BME280;59881;36.722;-4.462;2023-07-29T10:04:43;100713.34;;;40.86;20.50
60725;BME280;59881;36.722;-4.462;2023-07-29T10:07:11;100728.09;;;40.63;21.01
60725;BME280;59881;36.722;-4.462;2023-07-29T10:09:40;100338.03;;;37.86;21.59
60725;BME280;59881;36.722;-4.462;2023-07-29T10:12:06;100538.09;;;39.39;20.99
60725;BME280;59881;36.722;-4.462;2023-07-29T10:14:33;100586.88;;;39.57;21.46
60725;BME280;59881;36.722;-4.462;2023-07-29T10:17:00;100471.63;;;38.83;21.65
60725;BME280;59881;36.722;-4.462;2023-07-29T10:19:26;100570.06;;;39.40;21.77
60725;BME280;59881;36.722;-4.462;2023-07-29T10:21:52;100647.41;;;39.86;22.08
60725;BME280;59881;36.722;-4.462;2023-07-29T10:24:19;100720.72;;;40.58;21.80
60725;BME280;59881;36.722;-4.462;2023-07-29T10:26:49;100695.41;;;40.70;21.49
60725;BME280;59881;36.722;-4.462;2023-07-29T10:29:19;100614.59;;;40.18;21.87
60725;BME280;59881;36.722;-4.462;2023-07-29T10:31:46;100729.00;;;41.05;21.43
60725;BME280;59881;36.722;-4.462;2023-07-29T10:34:13;100767.66;;;41.05;21.55
60725;BME280;59881;36.722;-4.462;2023-07-29T10:36:39;100545.38;;;39.67;22.02
60725;BME280;59881;36.722;-4.462;2023-07-29T10:39:07;100721.66;;;40.67;22.75
60725;BME280;59881;36.722;-4.462;2023-07-29T10:41:55;100742.09;;;40.85;21.46
60725;BME280;59881;36.722;-4.462;2023-07-29T10:49:52;100715.69;;;38.05;25.12
60725;BME280;59881;36.722;-4.462;2023-07-29T10:52:40;100415.72;;;33.27;28.43
60725;BME280;59881;36.722;-4.462;2023-07-29T10:55:32;100646.69;;;32.89;31.58
60725;BME280;59881;36.722;-4.462;2023-07-29T11:00:43;100726.31;;;31.54;34.64
60725;BME280;59881;36.722;-4.462;2023-07-29T11:03:09;100728.34;;;31.23;35.79
60725;BME280;59881;36.722;-4.462;2023-07-29T11:05:53;100719.25;;;31.06;36.09
60725;BME280;59881;36.722;-4.462;2023-07-29T11:08:27;100721.63;;;31.02;35.99
60725;BME280;59881;36.722;-4.462;2023-07-29T11:11:06;100718.63;;;30.80;36.12
60725;BME280;59881;36.722;-4.462;2023-07-29T11:13:34;100719.91;;;30.66;36.41
60725;BME280;59881;36.722;-4.462;2023-07-29T11:16:00;100716.25;;;30.60;36.15
60725;BME280;59881;36.722;-4.462;2023-07-29T11:18:31;100582.34;;;29.76;36.01
60725;BME280;59881;36.722;-4.462;2023-07-29T11:20:59;100704.31;;;30.73;35.66
60725;BME280;59881;36.722;-4.462;2023-07-29T11:23:33;100702.06;;;30.58;35.73
60725;BME280;59881;36.722;-4.462;2023-07-29T11:25:59;100634.19;;;29.98;35.62
60725;BME280;59881;36.722;-4.462;2023-07-29T11:28:26;100701.81;;;30.48;35.64
60725;BME280;59881;36.722;-4.462;2023-07-29T11:30:51;99832.94;;;24.99;35.70
60725;BME280;59881;36.722;-4.462;2023-07-29T11:33:19;100663.25;;;29.67;36.95
60725;BME280;59881;36.722;-4.462;2023-07-29T11:35:45;100334.75;;;27.92;37.08
60725;BME280;59881;36.722;-4.462;2023-07-29T11:38:15;100530.00;;;29.38;36.53
60725;BME280;59881;36.722;-4.462;2023-07-29T11:40:41;100278.41;;;27.82;36.52
60725;BME280;59881;36.722;-4.462;2023-07-29T11:43:06;100467.59;;;29.08;34.02
60725;BME280;59881;36.722;-4.462;2023-07-29T11:45:33;100688.53;;;30.28;33.74
60725;BME280;59881;36.722;-4.462;2023-07-29T11:47:58;100707.00;;;30.19;35.34
60725;BME280;59881;36.722;-4.462;2023-07-29T11:50:26;100421.03;;;28.25;34.96
60725;BME280;59881;36.722;-4.462;2023-07-29T11:52:52;100377.03;;;28.30;34.71
60725;BME280;59881;36.722;-4.462;2023-07-29T11:55:17;100677.94;;;30.20;34.09
60725;BME280;59881;36.722;-4.462;2023-07-29T11:57:47;100587.16;;;29.74;34.33
60725;BME280;59881;36.722;-4.462;2023-07-29T12:00:16;100563.78;;;29.73;33.57
60725;BME280;59881;36.722;-4.462;2023-07-29T12:02:44;100667.88;;;30.50;33.53
60725;BME280;59881;36.722;-4.462;2023-07-29T12:05:11;100722.03;;;30.52;33.64
60725;BME280;59881;36.722;-4.462;2023-07-29T12:07:42;100636.81;;;30.04;31.14
60725;BME280;59881;36.722;-4.462;2023-07-29T12:10:08;100553.13;;;29.71;32.42
60725;BME280;59881;36.722;-4.462;2023-07-29T12:12:47;100668.47;;;30.41;32.51
60725;BME280;59881;36.722;-4.462;2023-07-29T12:15:13;100710.72;;;30.25;33.40
60725;BME280;59881;36.722;-4.462;2023-07-29T12:17:47;100474.00;;;28.95;33.73
60725;BME280;59881;36.722;-4.462;2023-07-29T12:20:13;100506.63;;;28.88;34.20
60725;BME280;59881;36.722;-4.462;2023-07-29T12:22:38;100711.50;;;30.14;34.56
60725;BME280;59881;36.722;-4.462;2023-07-29T12:25:05;100688.19;;;30.06;34.20
60725;BME280;59881;36.722;-4.462;2023-07-29T12:27:31;100506.31;;;28.97;33.85
60725;BME280;59881;36.722;-4.462;2023-07-29T12:29:58;100667.38;;;30.00;34.04
60725;BME280;59881;36.722;-4.462;2023-07-29T12:32:29;100217.50;;;27.11;33.15
60725;BME280;59881;36.722;-4.462;2023-07-29T12:34:54;100690.84;;;29.82;32.91
60725;BME280;59881;36.722;-4.462;2023-07-29T12:37:20;100318.38;;;27.80;33.00
60725;BME280;59881;36.722;-4.462;2023-07-29T12:39:49;100714.94;;;29.90;31.35
60725;BME280;59881;36.722;-4.462;2023-07-29T12:42:16;100655.34;;;29.96;32.64
60725;BME280;59881;36.722;-4.462;2023-07-29T12:44:41;100691.09;;;29.92;33.22
60725;BME280;59881;36.722;-4.462;2023-07-29T12:47:07;100068.16;;;26.29;33.13
60725;BME280;59881;36.722;-4.462;2023-07-29T12:49:34;100189.81;;;27.16;32.29
60725;BME280;59881;36.722;-4.462;2023-07-29T12:52:00;100645.31;;;29.96;33.21
60725;BME280;59881;36.722;-4.462;2023-07-29T12:54:26;100484.50;;;28.92;33.07